createdAt,value
2018-11-21T00:00:01.177Z,38.77
2018-11-21T00:03:23.113Z,37.20
2018-11-21T00:06:45.448Z,41.70
2018-11-21T00:10:09.552Z,39.60
2018-11-21T00:13:31.776Z,40.60
2018-11-21T00:16:53.522Z,36.07
2018-11-21T00:20:15.178Z,39.33
2018-11-21T00:23:37.074Z,38.47
2018-11-21T00:26:59.190Z,34.80
2018-11-21T00:30:21.302Z,37.80
2018-11-21T00:33:43.223Z,37.70
2018-11-21T00:37:05.263Z,36.57
2018-11-21T00:40:26.948Z,37.47
2018-11-21T00:43:48.598Z,38.40
2018-11-21T00:47:10.530Z,35.33
2018-11-21T00:50:32.482Z,39.70
2018-11-21T00:53:54.451Z,38.23
2018-11-21T00:57:16.437Z,36.80
2018-11-21T01:00:38.105Z,32.80
2018-11-21T01:04:07.237Z,33.93
2018-11-21T01:07:29.198Z,35.50
2018-11-21T01:10:50.973Z,32.80
2018-11-21T01:14:13.072Z,35.77
2018-11-21T01:17:35.221Z,39.50
2018-11-21T01:20:56.957Z,32.53
2018-11-21T01:24:18.628Z,35.73
2018-11-21T01:27:40.297Z,37.43
2018-11-21T01:31:02.441Z,33.00
2018-11-21T01:34:24.477Z,33.33
2018-11-21T01:37:46.705Z,37.80
2018-11-21T01:41:08.893Z,35.47
2018-11-21T01:44:30.803Z,38.90
2018-11-21T01:47:52.857Z,39.47
2018-11-21T01:51:14.954Z,37.87
2018-11-21T01:54:36.533Z,37.07
2018-11-21T01:57:58.742Z,37.60
2018-11-21T02:01:20.594Z,39.37
2018-11-21T02:04:42.560Z,37.73
2018-11-21T02:08:04.470Z,32.63
2018-11-21T02:11:26.283Z,38.40
2018-11-21T02:14:48.323Z,35.07
2018-11-21T02:18:10.554Z,39.53
2018-11-21T02:21:32.852Z,38.70
2018-11-21T02:24:54.792Z,41.20
2018-11-21T02:28:16.741Z,32.87
2018-11-21T02:31:38.499Z,37.60
2018-11-21T02:35:00.189Z,38.67
2018-11-21T02:38:22.256Z,38.67
2018-11-21T02:41:44.338Z,39.87
2018-11-21T02:45:06.195Z,39.73
2018-11-21T02:48:28.085Z,39.30
2018-11-21T02:51:50.118Z,42.57
2018-11-21T02:55:11.781Z,42.60
2018-11-21T02:58:33.561Z,40.30
2018-11-21T03:01:55.414Z,44.33
2018-11-21T03:05:17.861Z,39.77
2018-11-21T03:08:39.715Z,42.07
2018-11-21T03:12:01.621Z,41.23
2018-11-21T03:15:23.345Z,40.73
2018-11-21T03:18:45.082Z,38.60
2018-11-21T03:22:06.783Z,42.07
2018-11-21T03:25:28.688Z,41.67
2018-11-21T03:28:50.325Z,43.20
2018-11-21T03:32:12.325Z,41.47
2018-11-21T03:35:34.058Z,41.67
2018-11-21T03:38:56.257Z,33.77
2018-11-21T03:42:18.174Z,39.77
2018-11-21T03:45:39.925Z,40.97
2018-11-21T03:49:02.029Z,38.47
2018-11-21T03:52:23.937Z,41.33
2018-11-21T03:55:46.089Z,36.33
2018-11-21T03:59:08.260Z,43.93
2018-11-21T04:02:30.502Z,39.33
2018-11-21T04:05:52.492Z,39.13
2018-11-21T04:09:14.223Z,41.53
2018-11-21T04:12:36.090Z,39.00
2018-11-21T04:15:58.331Z,41.97
2018-11-21T04:19:19.862Z,39.70
2018-11-21T04:22:41.745Z,43.17
2018-11-21T04:26:03.582Z,45.03
2018-11-21T04:29:25.409Z,39.10
2018-11-21T04:32:47.223Z,39.50
2018-11-21T04:36:09.476Z,40.57
2018-11-21T04:39:31.520Z,42.23
2018-11-21T04:42:53.334Z,36.47
2018-11-21T04:46:15.367Z,39.73
2018-11-21T04:49:37.118Z,42.93
2018-11-21T04:52:59.028Z,41.20
2018-11-21T04:56:20.709Z,37.00
2018-11-21T04:59:42.404Z,44.17
2018-11-21T05:03:04.632Z,36.80
2018-11-21T05:06:26.306Z,39.40
2018-11-21T05:09:48.448Z,41.10
2018-11-21T05:13:10.469Z,39.23
2018-11-21T05:16:32.669Z,39.00
2018-11-21T05:19:54.849Z,45.63
2018-11-21T05:23:17.149Z,36.77
2018-11-21T05:26:39.148Z,42.33
2018-11-21T05:30:01.595Z,41.47
2018-11-21T05:33:24.798Z,40.03
2018-11-21T05:36:47.063Z,39.63
2018-11-21T05:40:09.546Z,39.07
2018-11-21T05:43:31.404Z,37.17
2018-11-21T05:46:53.783Z,39.67
2018-11-21T05:50:14.681Z,40.67
2018-11-21T05:53:36.657Z,39.03
2018-11-21T05:56:58.480Z,43.37
2018-11-21T06:00:20.253Z,36.80
2018-11-21T06:03:42.274Z,36.87
2018-11-21T06:07:04.118Z,42.40
2018-11-21T06:10:26.137Z,43.83
2018-11-21T06:13:48.613Z,43.90
2018-11-21T06:17:10.478Z,41.40
2018-11-21T06:20:32.626Z,36.67
2018-11-21T06:23:54.897Z,41.40
2018-11-21T06:27:17.057Z,42.47
2018-11-21T06:30:38.993Z,38.77
2018-11-21T06:34:00.989Z,40.13
2018-11-21T06:37:23.021Z,41.70
2018-11-21T06:40:45.004Z,41.80
2018-11-21T06:44:06.760Z,37.13
2018-11-21T06:47:28.844Z,42.00
2018-11-21T06:50:50.465Z,38.50
2018-11-21T06:54:13.496Z,38.67
2018-11-21T06:57:35.481Z,40.60
2018-11-21T07:00:57.821Z,38.50
2018-11-21T07:04:19.971Z,36.03
2018-11-21T07:07:41.897Z,38.27
2018-11-21T07:11:03.707Z,43.23
2018-11-21T07:14:25.557Z,43.53
2018-11-21T07:17:47.576Z,41.00
2018-11-21T07:21:09.543Z,43.57
2018-11-21T07:24:31.348Z,39.63
2018-11-21T07:27:53.441Z,26.40
2018-11-21T07:31:15.412Z,40.13
2018-11-21T07:34:37.638Z,39.43
2018-11-21T07:37:59.385Z,38.67
2018-11-21T07:41:21.727Z,37.13
2018-11-21T07:44:44.149Z,41.93
2018-11-21T07:48:06.299Z,42.00
2018-11-21T07:51:28.405Z,42.63
2018-11-21T07:54:50.914Z,40.23
2018-11-21T07:58:15.707Z,43.67
2018-11-21T08:01:46.359Z,42.80
2018-11-21T08:05:13.891Z,45.93
2018-11-21T08:08:52.435Z,42.40
2018-11-21T08:12:24.613Z,47.30
2018-11-21T08:16:08.872Z,40.60
2018-11-21T08:19:42.913Z,48.03
2018-11-21T08:23:33.725Z,43.83
2018-11-21T08:27:22.756Z,42.07
2018-11-21T08:30:44.857Z,32.17
2018-11-21T08:34:06.659Z,37.00
2018-11-21T08:37:28.384Z,37.27
2018-11-21T08:40:50.015Z,32.87
2018-11-21T08:44:11.723Z,43.37
2018-11-21T08:47:33.640Z,38.13
2018-11-21T08:50:56.094Z,37.53
2018-11-21T08:54:18.254Z,38.73
2018-11-21T08:57:40.079Z,35.83
2018-11-21T09:01:02.162Z,38.83
2018-11-21T09:04:24.303Z,38.63
2018-11-21T09:07:46.344Z,41.90
2018-11-21T09:11:08.229Z,41.20
2018-11-21T09:14:30.805Z,36.43
2018-11-21T09:17:52.781Z,42.27
2018-11-21T09:21:14.332Z,39.13
2018-11-21T09:24:35.847Z,38.47
2018-11-21T09:27:57.597Z,42.37
2018-11-21T09:31:19.418Z,39.13
2018-11-21T09:34:41.167Z,40.17
2018-11-21T09:38:03.527Z,37.73
2018-11-21T09:41:25.300Z,40.10
2018-11-21T09:44:47.452Z,40.07
2018-11-21T09:48:09.246Z,38.93
2018-11-21T09:51:31.009Z,42.77
2018-11-21T09:54:53.129Z,41.17
2018-11-21T09:58:15.361Z,38.57
2018-11-21T10:02:14.238Z,40.10
2018-11-21T10:05:36.217Z,39.80
2018-11-21T10:08:59.903Z,40.50
2018-11-21T10:12:21.730Z,44.23
2018-11-21T10:15:43.653Z,46.40
2018-11-21T10:19:06.213Z,48.83
2018-11-21T10:22:28.138Z,47.30
2018-11-21T10:25:50.572Z,46.03
2018-11-21T10:29:12.224Z,42.13
2018-11-21T10:32:34.265Z,45.03
2018-11-21T10:36:25.730Z,46.80
2018-11-21T10:39:49.015Z,48.90
2018-11-21T10:43:12.753Z,44.73
2018-11-21T10:46:36.009Z,50.40
2018-11-21T10:49:59.279Z,48.43
2018-11-21T10:53:22.296Z,48.87
2018-11-21T10:56:45.541Z,45.83
2018-11-21T11:00:16.218Z,44.00
2018-11-21T11:03:43.594Z,47.73
2018-11-21T11:07:27.548Z,48.13
2018-11-21T11:11:10.717Z,51.20
2018-11-21T11:15:04.648Z,52.53
2018-11-21T11:18:37.873Z,48.33
2018-11-21T11:22:25.030Z,47.43
2018-11-21T11:26:12.538Z,48.07
2018-11-21T11:29:54.522Z,50.83
2018-11-21T11:33:30.922Z,49.97
2018-11-21T11:37:11.802Z,45.27
2018-11-21T11:40:52.286Z,35.90
2018-11-21T11:44:39.690Z,43.43
2018-11-21T11:48:18.906Z,35.03
2018-11-21T11:51:51.490Z,45.93
2018-11-21T11:55:31.828Z,41.53
2018-11-21T11:59:12.443Z,48.43
2018-11-21T12:02:53.630Z,46.70
2018-11-21T12:06:47.618Z,45.50
2018-11-21T12:10:29.475Z,41.30
2018-11-21T12:14:29.497Z,47.23
2018-11-21T12:18:20.310Z,44.90
2018-11-21T12:22:00.986Z,46.27
2018-11-21T12:25:37.339Z,46.13
2018-11-21T12:29:17.679Z,41.50
2018-11-21T12:32:48.676Z,50.30
2018-11-21T12:36:29.449Z,46.27
2018-11-21T12:40:14.269Z,45.27
2018-11-21T12:44:11.235Z,44.07
2018-11-21T12:47:45.474Z,45.37
2018-11-21T12:51:33.630Z,46.27
2018-11-21T12:55:14.525Z,44.10
2018-11-21T12:59:03.890Z,41.87
2018-11-21T13:02:35.144Z,37.40
2018-11-21T13:06:10.939Z,44.33
2018-11-21T13:10:08.197Z,42.37
2018-11-21T13:13:51.490Z,42.27
2018-11-21T13:17:32.206Z,42.13
2018-11-21T13:21:23.058Z,45.77
2018-11-21T13:25:03.891Z,39.60
2018-11-21T13:28:44.207Z,42.30
2018-11-21T13:32:24.476Z,42.33
2018-11-21T13:36:05.853Z,40.13
2018-11-21T13:39:46.583Z,34.37
2018-11-21T13:43:26.991Z,38.27
2018-11-21T13:47:09.673Z,40.20
2018-11-21T13:50:50.128Z,40.77
2018-11-21T13:54:30.541Z,43.07
2018-11-21T13:57:53.663Z,41.33
2018-11-21T14:01:17.097Z,43.73
2018-11-21T14:04:40.360Z,44.90
2018-11-21T14:08:03.559Z,43.57
2018-11-21T14:11:26.615Z,44.50
2018-11-21T14:14:50.082Z,43.43
2018-11-21T14:18:13.502Z,43.30
2018-11-21T14:21:37.218Z,37.87
2018-11-21T14:25:00.554Z,44.37
2018-11-21T14:28:23.678Z,41.30
2018-11-21T14:31:47.742Z,38.03
2018-11-21T14:35:12.935Z,44.83
2018-11-21T14:38:36.115Z,42.87
2018-11-21T14:41:59.494Z,44.30
2018-11-21T14:45:22.534Z,43.37
2018-11-21T14:48:45.573Z,43.53
2018-11-21T14:52:08.903Z,39.67
2018-11-21T14:55:31.898Z,43.10
2018-11-21T14:58:55.373Z,45.27
2018-11-21T15:02:18.772Z,44.63
2018-11-21T15:05:41.973Z,38.23
2018-11-21T15:09:08.641Z,38.70
2018-11-21T15:12:31.850Z,40.87
2018-11-21T15:15:54.736Z,43.53
2018-11-21T15:19:18.011Z,42.40
2018-11-21T15:22:41.042Z,46.07
2018-11-21T15:26:04.264Z,39.53
2018-11-21T15:29:27.887Z,44.40
2018-11-21T15:32:50.782Z,43.53
2018-11-21T15:36:13.890Z,36.10
2018-11-21T15:39:37.030Z,42.60
2018-11-21T15:43:00.290Z,43.23
2018-11-21T15:46:23.473Z,46.30
2018-11-21T15:49:46.266Z,41.73
2018-11-21T15:53:09.129Z,42.33
2018-11-21T15:56:32.218Z,44.27
2018-11-21T15:59:54.956Z,46.07
2018-11-21T16:03:18.174Z,44.03
2018-11-21T16:06:41.454Z,46.60
2018-11-21T16:10:09.867Z,38.97
2018-11-21T16:13:29.275Z,42.87
2018-11-21T16:16:52.564Z,44.43
2018-11-21T16:20:16.911Z,43.97
2018-11-21T16:23:40.306Z,44.83
2018-11-21T16:27:03.833Z,37.87
2018-11-21T16:30:27.590Z,45.07
2018-11-21T16:33:50.428Z,43.47
2018-11-21T16:37:13.667Z,43.40
2018-11-21T16:40:37.351Z,43.57
2018-11-21T16:44:00.519Z,42.47
2018-11-21T16:47:23.713Z,40.30
2018-11-21T16:50:46.900Z,46.47
2018-11-21T16:54:10.318Z,43.33
2018-11-21T16:57:33.630Z,41.93
2018-11-21T17:00:56.914Z,44.03
2018-11-21T17:04:20.048Z,47.97
2018-11-21T17:07:43.492Z,46.60
2018-11-21T17:11:06.886Z,46.67
2018-11-21T17:14:29.638Z,46.17
2018-11-21T17:17:52.479Z,47.67
2018-11-21T17:21:15.954Z,48.13
2018-11-21T17:24:39.161Z,43.80
2018-11-21T17:28:02.865Z,49.87
2018-11-21T17:31:25.685Z,48.60
2018-11-21T17:34:48.891Z,44.70
2018-11-21T17:38:12.056Z,44.20
2018-11-21T17:41:35.215Z,45.13
2018-11-21T17:44:58.825Z,52.87
2018-11-21T17:48:22.042Z,52.10
2018-11-21T17:51:44.892Z,56.87
2018-11-21T17:55:10.420Z,51.03
2018-11-21T17:58:33.350Z,51.27
2018-11-21T18:01:56.141Z,52.27
2018-11-21T18:05:23.809Z,53.20
2018-11-21T18:08:46.707Z,56.40
2018-11-21T18:12:09.610Z,57.63
2018-11-21T18:15:32.849Z,61.07
2018-11-21T18:18:56.150Z,54.13
2018-11-21T18:22:19.385Z,63.47
2018-11-21T18:25:44.196Z,63.60
2018-11-21T18:29:11.608Z,59.27
2018-11-21T18:32:30.143Z,64.50
2018-11-21T18:35:53.167Z,57.53
2018-11-21T18:39:16.015Z,60.10
2018-11-21T18:42:39.086Z,64.50
2018-11-21T18:46:02.278Z,62.57
2018-11-21T18:49:25.584Z,55.57
2018-11-21T18:52:50.125Z,58.37
2018-11-21T18:56:31.918Z,53.10
2018-11-21T19:00:18.107Z,57.43
2018-11-21T19:03:41.346Z,59.90
2018-11-21T19:07:05.230Z,59.40
2018-11-21T19:10:28.375Z,43.10
2018-11-21T19:13:52.169Z,58.60
2018-11-21T19:17:15.181Z,52.17
2018-11-21T19:20:38.366Z,57.40
2018-11-21T19:24:01.670Z,57.97
2018-11-21T19:27:25.293Z,53.13
2018-11-21T19:30:48.674Z,54.90
2018-11-21T19:34:11.924Z,62.00
2018-11-21T19:37:34.959Z,55.17
2018-11-21T19:40:58.101Z,60.13
2018-11-21T19:44:21.409Z,56.43
2018-11-21T19:47:44.979Z,52.07
2018-11-21T19:51:08.678Z,58.57
2018-11-21T19:54:31.429Z,59.63
2018-11-21T19:57:54.549Z,56.60
2018-11-21T20:01:17.754Z,58.00
2018-11-21T20:04:40.941Z,56.33
2018-11-21T20:08:04.241Z,58.77
2018-11-21T20:11:27.261Z,55.27
2018-11-21T20:14:50.300Z,57.37
2018-11-21T20:18:13.582Z,58.07
2018-11-21T20:21:36.490Z,51.30
2018-11-21T20:24:59.658Z,58.23
2018-11-21T20:28:23.050Z,56.03
2018-11-21T20:31:46.228Z,54.87
2018-11-21T20:35:10.343Z,54.70
2018-11-21T20:38:34.025Z,52.87
2018-11-21T20:41:57.219Z,54.57
2018-11-21T20:45:21.797Z,59.37
2018-11-21T20:48:45.161Z,55.97
2018-11-21T20:52:08.370Z,55.80
2018-11-21T20:55:32.498Z,61.60
2018-11-21T20:58:56.129Z,59.37
2018-11-21T21:02:19.165Z,59.90
2018-11-21T21:05:42.328Z,60.67
2018-11-21T21:09:09.709Z,63.30
2018-11-21T21:12:33.281Z,50.33
2018-11-21T21:15:56.908Z,48.87
2018-11-21T21:19:20.168Z,55.57
2018-11-21T21:22:43.937Z,60.77
2018-11-21T21:26:07.918Z,55.97
2018-11-21T21:29:31.500Z,55.87
2018-11-21T21:32:54.837Z,52.83
2018-11-21T21:36:17.781Z,54.70
2018-11-21T21:39:40.988Z,55.37
2018-11-21T21:43:03.929Z,56.40
2018-11-21T21:46:27.229Z,59.80
2018-11-21T21:49:53.714Z,54.00
2018-11-21T21:53:16.869Z,61.17
2018-11-21T21:56:39.734Z,49.53
2018-11-21T22:00:03.590Z,52.37
2018-11-21T22:03:26.036Z,53.73
2018-11-21T22:06:48.985Z,53.87
2018-11-21T22:10:13.792Z,58.60
2018-11-21T22:13:36.526Z,54.93
2018-11-21T22:16:59.744Z,58.30
2018-11-21T22:20:23.400Z,57.83
2018-11-21T22:23:46.198Z,54.27
2018-11-21T22:27:09.039Z,47.73
2018-11-21T22:30:32.068Z,53.93
2018-11-21T22:33:55.085Z,55.00
2018-11-21T22:37:18.518Z,56.17
2018-11-21T22:40:41.500Z,53.07
2018-11-21T22:44:04.816Z,47.90
2018-11-21T22:47:28.179Z,51.67
2018-11-21T22:50:51.313Z,51.10
2018-11-21T22:54:14.584Z,50.10
2018-11-21T22:57:37.996Z,44.73
2018-11-21T23:01:01.586Z,49.57
2018-11-21T23:04:24.572Z,49.27
2018-11-21T23:07:47.698Z,51.73
2018-11-21T23:11:11.095Z,55.60
2018-11-21T23:14:34.295Z,47.73
2018-11-21T23:17:57.746Z,54.30
2018-11-21T23:21:20.515Z,42.17
2018-11-21T23:24:43.956Z,53.80
2018-11-21T23:28:07.551Z,54.27
2018-11-21T23:31:30.917Z,54.87
2018-11-21T23:34:53.881Z,56.70
2018-11-21T23:38:16.818Z,50.57
2018-11-21T23:41:40.190Z,58.07
2018-11-21T23:45:03.950Z,56.03
2018-11-21T23:48:26.841Z,52.33
2018-11-21T23:51:49.968Z,58.27
2018-11-21T23:55:15.650Z,51.63
2018-11-21T23:58:38.749Z,55.13
